Time;durP1;ratioP1;P1;durP2;ratioP2;P2;SDS_P1;SDS_P2;PMS_P1;PMS_P2;Temp;Humidity;BMP_temperature;BMP_pressure;BME280_temperature;BME280_humidity;BME280_pressure;Samples;Min_cycle;Max_cycle;Signal;HPM_P1;HPM_P2
2022/08/04 00:01:56;;;;;;;3.92;2.75;;;;;;;30.99;39.33;99374.13;4153391;28;20650;-29
2022/08/04 00:04:10;;;;;;;3.90;2.58;;;;;;;30.88;39.12;99374.34;4153775;28;20232;-29
2022/08/04 00:06:18;;;;;;;3.95;2.80;;;;;;;31.07;39.30;99373.41;4160781;28;20229;-29
2022/08/04 00:08:52;;;;;;;4.10;2.70;;;;;;;30.52;39.62;99376.91;4155589;28;20237;-29
2022/08/04 00:10:58;;;;;;;2.95;2.60;;;;;;;30.83;39.30;99368.13;4153025;28;20252;-29
2022/08/04 00:13:02;;;;;;;3.58;2.72;;;;;;;30.86;39.17;99365.59;4160402;28;20279;-29
2022/08/04 00:15:05;;;;;;;3.30;2.97;;;;;;;30.97;39.30;99368.94;4152669;28;20237;-29
2022/08/04 00:17:07;;;;;;;5.68;2.92;;;;;;;30.72;39.64;99367.47;4154129;28;20766;-29
2022/08/04 00:19:16;;;;;;;3.67;2.75;;;;;;;30.88;39.43;99374.34;4156170;28;20606;-29
2022/08/04 00:21:22;;;;;;;5.95;3.40;;;;;;;30.74;39.61;99373.53;4159976;28;20235;-29
2022/08/04 00:23:26;;;;;;;4.10;3.42;;;;;;;30.73;39.54;99375.44;4156620;28;20305;-29
2022/08/04 00:25:48;;;;;;;4.82;2.90;;;;;;;30.25;40.40;99381.22;4161235;28;20237;-29
2022/08/04 00:27:50;;;;;;;5.07;3.10;;;;;;;30.61;40.00;99368.81;4153933;28;20691;-29
2022/08/04 00:29:52;;;;;;;4.30;2.78;;;;;;;30.15;40.61;99378.63;4154805;28;20311;-29
2022/08/04 00:31:58;;;;;;;3.10;2.80;;;;;;;30.51;40.20;99373.34;4159326;28;20228;-29
2022/08/04 00:34:00;;;;;;;3.22;2.90;;;;;;;30.79;39.85;99370.69;4154656;28;20278;-29
2022/08/04 00:36:02;;;;;;;4.75;3.10;;;;;;;30.55;39.78;99377.13;4156909;28;20229;-29
2022/08/04 00:38:04;;;;;;;3.85;2.88;;;;;;;30.15;40.36;99376.69;4155184;28;20242;-29
2022/08/04 00:40:52;;;;;;;4.07;2.67;;;;;;;30.78;39.50;99369.03;4159255;28;20870;-29
2022/08/04 00:43:12;;;;;;;3.70;3.00;;;;;;;30.44;39.74;99380.34;4148714;28;20702;-30
2022/08/04 00:45:43;;;;;;;4.65;3.10;;;;;;;30.38;39.92;99376.88;4156105;28;20236;-30
2022/08/04 00:48:23;;;;;;;3.70;2.88;;;;;;;30.36;40.05;99377.16;4154402;28;20240;-30
2022/08/04 00:50:30;;;;;;;4.93;2.72;;;;;;;29.93;40.57;99384.69;4155146;28;20282;-30
2022/08/04 00:53:14;;;;;;;4.47;3.88;;;;;;;30.32;40.18;99378.91;4156629;28;20228;-30
2022/08/04 00:55:34;;;;;;;4.20;3.08;;;;;;;30.12;40.28;99380.03;4126520;28;20244;-30
2022/08/04 00:57:55;;;;;;;3.17;2.88;;;;;;;29.94;40.67;99381.66;4156855;28;20310;-30
2022/08/04 01:00:10;;;;;;;3.33;2.97;;;;;;;29.88;40.88;99368.34;4158665;28;20240;-29
2022/08/04 01:02:38;;;;;;;5.07;2.85;;;;;;;29.68;41.15;99367.50;4154344;28;20229;-29
2022/08/04 01:05:03;;;;;;;3.83;2.63;;;;;;;29.61;41.08;99365.16;4155916;28;20273;-29
2022/08/04 01:07:04;;;;;;;4.68;3.10;;;;;;;29.50;41.35;99382.00;4158726;28;21029;-29
2022/08/04 01:09:27;;;;;;;4.22;2.80;;;;;;;30.03;40.33;99376.34;4163072;28;20259;-29
2022/08/04 01:11:47;;;;;;;3.40;2.90;;;;;;;30.11;40.25;99374.81;4156129;28;20255;-30
2022/08/04 01:14:04;;;;;;;7.50;3.00;;;;;;;29.45;41.24;99380.16;4153633;28;20228;-30
2022/08/04 01:16:09;;;;;;;4.60;3.22;;;;;;;29.31;41.69;99371.84;4155805;28;20311;-30
2022/08/04 01:18:23;;;;;;;3.72;2.78;;;;;;;29.23;41.36;99376.03;4154109;28;20228;-30
2022/08/04 01:20:29;;;;;;;4.35;2.88;;;;;;;29.48;41.25;99377.63;4155377;28;20224;-29
2022/08/04 01:22:30;;;;;;;3.53;2.88;;;;;;;29.75;40.82;99376.19;4155441;28;20236;-29
2022/08/04 01:24:55;;;;;;;3.97;2.90;;;;;;;29.61;41.08;99387.06;4154489;28;20828;-30
2022/08/04 01:26:59;;;;;;;3.53;2.88;;;;;;;29.44;41.36;99393.03;4158756;28;20237;-30
2022/08/04 01:29:12;;;;;;;3.70;2.95;;;;;;;29.81;40.88;99380.50;4154697;28;20235;-29
2022/08/04 01:31:48;;;;;;;3.88;3.05;;;;;;;29.83;40.45;99378.28;4156700;28;20585;-29
2022/08/04 01:33:54;;;;;;;4.65;3.22;;;;;;;29.54;40.90;99385.78;4153038;28;20231;-30
2022/08/04 01:36:05;;;;;;;3.42;3.00;;;;;;;29.40;41.24;99391.97;4156833;28;20306;-29
2022/08/04 01:38:27;;;;;;;6.60;3.25;;;;;;;29.63;40.72;99376.63;4156438;28;20240;-29
2022/08/04 01:40:29;;;;;;;4.22;3.17;;;;;;;29.69;40.59;99382.81;4152506;28;20241;-30
2022/08/04 01:42:33;;;;;;;4.72;3.28;;;;;;;29.54;40.79;99381.13;4156237;28;20279;-30
2022/08/04 01:44:37;;;;;;;5.63;3.20;;;;;;;29.39;41.46;99386.78;4153530;28;20659;-29
2022/08/04 01:46:39;;;;;;;5.40;3.30;;;;;;;29.25;41.47;99382.06;4154864;28;20230;-29
2022/08/04 01:48:46;;;;;;;4.25;3.53;;;;;;;29.36;41.41;99381.94;4155545;28;20709;-29
2022/08/04 01:50:50;;;;;;;4.22;3.63;;;;;;;29.58;40.88;99378.63;4153060;28;20224;-29
2022/08/04 01:52:55;;;;;;;3.30;2.80;;;;;;;29.32;41.07;99383.63;4157124;28;20275;-30
2022/08/04 01:54:58;;;;;;;4.25;2.95;;;;;;;29.36;40.75;99382.75;4159139;28;20784;-29
2022/08/04 01:57:04;;;;;;;5.30;3.00;;;;;;;29.50;40.69;99382.00;4164196;28;20215;-29
2022/08/04 01:59:29;;;;;;;3.92;2.92;;;;;;;29.14;41.62;99383.25;4154126;28;20241;-29
2022/08/04 02:01:35;;;;;;;6.40;2.88;;;;;;;28.99;41.79;99370.56;4156407;28;20209;-29
2022/08/04 02:03:40;;;;;;;4.00;2.55;;;;;;;27.77;43.92;99375.97;4153508;28;20233;-30
2022/08/04 02:06:28;;;;;;;3.47;2.80;;;;;;;28.65;42.48;99357.78;4150727;28;20279;-30
2022/08/04 02:08:59;;;;;;;4.18;2.90;;;;;;;28.69;42.72;99361.59;4129911;28;20298;-30
2022/08/04 02:11:04;;;;;;;3.47;2.78;;;;;;;28.72;42.34;99369.22;4153957;28;20229;-30
2022/08/04 02:13:27;;;;;;;5.50;3.03;;;;;;;29.14;42.06;99369.56;4153961;28;20232;-29
2022/08/04 02:15:50;;;;;;;6.15;3.28;;;;;;;28.93;42.36;99371.72;4140122;28;20225;-29
2022/08/04 02:18:04;;;;;;;3.75;3.38;;;;;;;28.61;42.71;99375.84;4153001;28;20226;-29
2022/08/04 02:20:11;;;;;;;5.13;3.53;;;;;;;29.10;41.83;99376.72;4152959;28;20236;-29
2022/08/04 02:22:17;;;;;;;3.35;2.90;;;;;;;28.72;42.57;99377.41;4154179;28;20233;-29
2022/08/04 02:24:26;;;;;;;4.00;2.60;;;;;;;28.26;43.50;99372.38;4153596;28;20710;-29
2022/08/04 02:26:31;;;;;;;3.17;2.63;;;;;;;28.15;43.44;99366.16;4153251;28;20240;-29
2022/08/04 02:28:39;;;;;;;4.60;2.83;;;;;;;28.86;42.49;99355.66;4161149;28;20291;-29
2022/08/04 02:30:56;;;;;;;4.78;2.78;;;;;;;27.93;44.09;99365.75;4154777;28;20625;-30
2022/08/04 02:33:02;;;;;;;4.78;2.97;;;;;;;27.94;43.76;99362.75;4155274;28;20702;-29
2022/08/04 02:35:26;;;;;;;4.07;3.03;;;;;;;27.97;44.04;99358.63;4155595;28;20282;-29
2022/08/04 02:37:31;;;;;;;5.65;3.20;;;;;;;28.77;42.31;99345.66;4154907;28;20228;-29
2022/08/04 02:39:35;;;;;;;8.27;3.30;;;;;;;28.07;43.47;99361.25;4155242;28;20205;-29
2022/08/04 02:41:52;;;;;;;3.47;3.03;;;;;;;28.04;44.22;99347.38;4155516;28;20252;-30
2022/08/04 02:44:02;;;;;;;10.40;3.20;;;;;;;27.45;44.87;99344.47;4153494;28;20570;-29
2022/08/04 02:46:05;;;;;;;5.22;3.00;;;;;;;27.61;44.66;99337.81;4159541;28;20227;-29
2022/08/04 02:48:21;;;;;;;3.75;2.90;;;;;;;27.26;45.58;99347.84;4152425;28;20610;-29
2022/08/04 02:50:34;;;;;;;6.40;2.70;;;;;;;27.20;45.42;99334.50;4152917;28;20303;-30
2022/08/04 02:52:38;;;;;;;3.60;2.50;;;;;;;27.26;45.83;99345.09;4152350;28;20807;-30
2022/08/04 02:54:44;;;;;;;6.22;3.20;;;;;;;28.00;44.15;99349.84;4153741;28;20617;-29
2022/08/04 02:56:50;;;;;;;3.47;2.80;;;;;;;27.87;44.38;99351.34;4153719;28;20310;-29
2022/08/04 02:58:58;;;;;;;3.50;2.88;;;;;;;27.42;45.37;99355.94;4153911;28;20678;-29
2022/08/04 03:01:00;;;;;;;4.32;3.08;;;;;;;27.42;44.86;99350.50;4155264;28;20655;-29
2022/08/04 03:03:21;;;;;;;6.32;2.90;;;;;;;27.22;45.87;99360.41;4159856;28;20231;-29
2022/08/04 03:05:30;;;;;;;4.32;2.92;;;;;;;27.15;45.90;99348.16;4141521;28;20221;-29
2022/08/04 03:08:09;;;;;;;5.15;3.00;;;;;;;26.68;46.48;99350.19;4154335;28;20234;-29
2022/08/04 03:10:37;;;;;;;2.90;2.53;;;;;;;27.43;44.91;99346.63;4149599;28;20229;-29
2022/08/04 03:13:03;;;;;;;7.75;3.53;;;;;;;28.42;43.46;99347.63;4151278;28;20330;-29
2022/08/04 03:15:08;;;;;;;14.32;3.72;;;;;;;28.31;43.33;99366.84;4158638;28;20233;-29
2022/08/04 03:17:48;;;;;;;9.18;3.53;;;;;;;28.78;42.66;99366.41;4157210;28;20229;-29
2022/08/04 03:20:18;;;;;;;5.57;3.72;;;;;;;28.84;42.25;99368.81;4149425;28;20239;-29
2022/08/04 03:22:48;;;;;;;8.70;3.50;;;;;;;28.74;42.40;99377.94;4149722;28;20235;-29
2022/08/04 03:25:22;;;;;;;11.10;3.63;;;;;;;28.03;44.06;99367.59;4153456;28;20744;-29
2022/08/04 03:28:12;;;;;;;5.78;3.40;;;;;;;27.32;44.87;99373.19;4151948;28;20568;-29
2022/08/04 03:31:11;;;;;;;10.23;3.60;;;;;;;28.25;43.25;99357.06;4158555;28;20236;-29
2022/08/04 03:33:18;;;;;;;9.75;3.40;;;;;;;28.35;43.51;99372.56;4105243;28;20234;-29
2022/08/04 03:35:41;;;;;;;8.82;3.22;;;;;;;28.31;43.01;99377.78;4090750;28;20237;-29
2022/08/04 03:37:52;;;;;;;13.82;4.68;;;;;;;28.26;43.54;99379.72;4096256;28;20244;-29
2022/08/04 03:40:12;;;;;;;10.70;3.72;;;;;;;27.90;43.92;99388.19;4148672;28;20714;-29
2022/08/04 03:43:08;;;;;;;14.23;4.07;;;;;;;28.00;43.56;99388.09;4153831;28;20221;-29
2022/08/04 03:45:32;;;;;;;6.70;3.33;;;;;;;27.67;44.51;99390.53;4090659;28;20255;-29
2022/08/04 03:47:43;;;;;;;7.45;3.30;;;;;;;27.59;44.08;99394.63;4143463;28;22580;-29
2022/08/04 03:49:55;;;;;;;10.25;3.25;;;;;;;27.18;44.94;99388.50;4142814;28;20235;-29
2022/08/04 03:55:32;;;;;;;3.92;2.92;;;;;;;26.97;45.75;99365.94;4148284;28;21068;-29
2022/08/04 03:57:55;;;;;;;2.95;2.65;;;;;;;26.59;46.29;99369.03;4154487;28;20240;-29
2022/08/04 04:00:11;;;;;;;3.40;3.10;;;;;;;26.75;45.60;99369.78;4160382;28;20285;-29
2022/08/04 04:02:44;;;;;;;2.92;2.65;;;;;;;26.56;46.27;99366.03;4156941;28;20233;-30
2022/08/04 04:05:25;;;;;;;5.68;3.10;;;;;;;27.21;44.89;99356.06;4154483;28;20235;-29
2022/08/04 04:07:35;;;;;;;3.72;3.00;;;;;;;27.10;44.97;99364.56;4151473;28;20264;-29
2022/08/04 04:09:55;;;;;;;4.72;3.28;;;;;;;27.61;44.34;99369.78;4159664;28;20954;-29
2022/08/04 04:12:10;;;;;;;7.78;3.83;;;;;;;27.51;44.31;99378.00;4155472;28;20825;-29
2022/08/04 04:14:15;;;;;;;7.45;3.50;;;;;;;27.48;44.92;99384.03;4159709;28;20224;-29
2022/08/04 04:16:28;;;;;;;7.30;4.53;;;;;;;28.09;43.90;99385.56;4157699;28;20784;-29
2022/08/04 04:19:00;;;;;;;5.43;3.60;;;;;;;27.98;43.97;99390.31;4153521;28;20237;-29
2022/08/04 04:21:33;;;;;;;5.72;3.33;;;;;;;27.59;44.74;99400.06;4154379;28;20650;-29
2022/08/04 04:23:56;;;;;;;4.82;3.65;;;;;;;27.53;44.56;99393.00;4154075;28;20303;-29
2022/08/04 04:26:13;;;;;;;8.65;3.72;;;;;;;27.32;44.75;99388.75;4155238;28;20282;-29
2022/08/04 04:28:33;;;;;;;12.85;4.57;;;;;;;27.61;44.54;99388.91;4153060;28;20246;-29
2022/08/04 04:31:32;;;;;;;9.75;4.10;;;;;;;27.06;45.76;99400.59;4153862;28;20698;-29
2022/08/04 04:34:07;;;;;;;5.40;3.72;;;;;;;27.24;45.83;99381.94;4150620;28;20229;-29
2022/08/04 04:36:32;;;;;;;4.18;3.60;;;;;;;26.99;46.38;99393.75;4157383;28;20224;-29
2022/08/04 04:38:43;;;;;;;5.93;3.63;;;;;;;27.41;45.84;99376.16;4155366;28;20232;-29
2022/08/04 04:40:48;;;;;;;4.60;3.40;;;;;;;27.28;46.23;99388.50;4155554;28;20232;-29
2022/08/04 04:43:05;;;;;;;6.60;3.95;;;;;;;26.90;46.98;99385.31;4154842;28;20286;-29
2022/08/04 04:45:22;;;;;;;4.82;4.05;;;;;;;26.71;47.57;99372.25;4156160;28;20283;-29
2022/08/04 04:47:36;;;;;;;5.10;3.75;;;;;;;27.32;46.69;99381.38;4160098;28;20236;-29
2022/08/04 04:50:27;;;;;;;4.30;3.80;;;;;;;27.49;46.22;99389.22;4153347;28;20619;-29
2022/08/04 04:52:48;;;;;;;7.22;4.00;;;;;;;27.62;45.74;99398.75;4153448;28;20225;-29
2022/08/04 04:54:58;;;;;;;6.35;3.78;;;;;;;27.71;45.62;99404.44;4153828;28;20278;-29
2022/08/04 04:57:16;;;;;;;10.65;4.00;;;;;;;27.22;46.64;99412.25;4161709;28;20629;-30
2022/08/04 05:02:41;;;;;;;8.65;4.10;;;;;;;27.81;45.81;99371.59;4180977;27;20577;-71
2022/08/04 05:05:07;;;;;;;6.25;3.78;;;;;;;27.58;47.00;99375.78;4177518;28;20377;-71
2022/08/04 05:07:40;;;;;;;4.68;3.63;;;;;;;28.45;44.95;99385.34;4171438;28;20242;-71
2022/08/04 05:10:10;;;;;;;5.72;4.00;;;;;;;28.64;44.61;99399.09;4169548;28;20223;-72
2022/08/04 05:12:33;;;;;;;8.65;3.55;;;;;;;28.64;44.86;99402.63;4167377;28;20233;-72
2022/08/04 05:14:58;;;;;;;10.18;4.20;;;;;;;27.80;46.62;99410.91;4173524;28;20828;-73
2022/08/04 05:17:03;;;;;;;13.02;3.92;;;;;;;28.20;45.99;99400.03;4165041;28;20236;-71
2022/08/04 05:19:17;;;;;;;7.22;4.38;;;;;;;27.89;45.94;99403.78;4166845;28;20258;-70
2022/08/04 05:21:32;;;;;;;9.52;4.03;;;;;;;28.37;45.69;99394.94;4153009;28;20234;-71
2022/08/04 05:23:39;;;;;;;9.38;4.07;;;;;;;27.32;47.15;99413.31;4163139;28;20735;-71
2022/08/04 05:25:56;;;;;;;6.75;3.97;;;;;;;28.14;45.89;99394.56;4165653;28;20266;-73
2022/08/04 05:28:19;;;;;;;14.10;4.07;;;;;;;27.51;47.01;99408.03;4162309;28;20236;-71
2022/08/04 05:30:23;;;;;;;7.13;4.25;;;;;;;28.54;45.10;99413.66;4168911;28;20828;-71
2022/08/04 05:32:36;;;;;;;10.98;4.68;;;;;;;29.00;44.35;99418.72;4164249;28;20228;-72
2022/08/04 05:34:44;;;;;;;5.95;3.70;;;;;;;28.94;44.61;99424.56;4163189;28;20728;-71
2022/08/04 05:36:48;;;;;;;7.88;3.70;;;;;;;27.29;47.17;99432.97;4165024;28;20293;-71
2022/08/04 05:38:53;;;;;;;5.90;3.60;;;;;;;26.62;48.63;99414.00;4171497;28;20923;-71
2022/08/04 05:40:55;;;;;;;7.15;4.13;;;;;;;26.20;49.38;99412.34;4172135;28;20696;-72
2022/08/04 05:42:57;;;;;;;4.70;3.63;;;;;;;25.98;50.18;99413.38;4165509;28;20236;-72
2022/08/04 05:45:01;;;;;;;5.90;3.75;;;;;;;25.84;50.54;99412.25;4166254;28;20250;-72
2022/08/04 05:47:04;;;;;;;5.65;3.88;;;;;;;26.44;49.60;99405.25;4165656;28;20773;-72
2022/08/04 05:49:07;;;;;;;4.95;3.53;;;;;;;27.52;47.10;99406.97;4161244;28;20804;-71
2022/08/04 05:51:11;;;;;;;5.40;4.13;;;;;;;27.15;48.40;99400.81;4165120;28;20727;-71
2022/08/04 05:53:15;;;;;;;4.78;3.70;;;;;;;27.92;46.90;99408.66;4163421;28;20703;-70
2022/08/04 05:55:18;;;;;;;6.68;3.40;;;;;;;27.47;47.62;99431.56;4162288;28;20274;-71
2022/08/04 05:57:40;;;;;;;6.82;3.60;;;;;;;27.47;47.82;99437.03;4162318;28;21110;-72
2022/08/04 05:59:45;;;;;;;5.22;4.25;;;;;;;27.61;47.16;99427.13;4168446;28;20264;-72
2022/08/04 06:01:47;;;;;;;4.88;3.45;;;;;;;27.41;47.85;99428.00;4167896;28;20237;-71
2022/08/04 06:04:00;;;;;;;5.68;3.55;;;;;;;27.85;46.65;99435.47;4164201;28;20234;-72
2022/08/04 06:06:03;;;;;;;4.50;3.95;;;;;;;27.67;46.49;99433.38;4168441;28;20244;-73
2022/08/04 06:08:05;;;;;;;4.35;3.40;;;;;;;28.92;44.56;99435.78;4158261;28;20232;-72
2022/08/04 06:10:15;;;;;;;4.82;3.60;;;;;;;28.26;45.38;99454.38;4148958;28;20580;-71
2022/08/04 06:12:22;;;;;;;3.95;3.10;;;;;;;27.88;45.97;99445.84;4146921;28;20247;-73
2022/08/04 06:14:24;;;;;;;6.57;3.60;;;;;;;27.20;47.07;99440.94;4141074;28;20285;-74
2022/08/04 06:16:36;;;;;;;4.15;3.30;;;;;;;28.00;45.82;99427.19;4153575;28;20232;-71
2022/08/04 06:18:39;;;;;;;9.10;4.07;;;;;;;27.81;45.63;99435.22;4154506;28;20237;-72
2022/08/04 06:21:03;;;;;;;3.85;3.45;;;;;;;28.26;45.48;99431.66;4151658;28;20725;-71
2022/08/04 06:23:19;;;;;;;3.72;3.03;;;;;;;28.25;45.42;99433.59;4147717;28;20228;-73
2022/08/04 06:25:29;;;;;;;4.57;3.38;;;;;;;27.69;46.16;99453.88;4142972;28;20291;-72
2022/08/04 06:27:32;;;;;;;8.40;3.75;;;;;;;27.18;47.88;99449.41;4153299;28;20212;-74
2022/08/04 06:29:39;;;;;;;4.93;3.78;;;;;;;27.72;46.36;99442.38;4153206;28;20647;-73
2022/08/04 06:32:01;;;;;;;6.10;4.00;;;;;;;28.15;45.93;99450.06;4153342;28;20231;-72
2022/08/04 06:34:25;;;;;;;8.13;3.30;;;;;;;28.25;45.27;99458.19;4150790;28;20740;-71
2022/08/04 06:36:29;;;;;;;5.38;3.42;;;;;;;28.35;45.66;99455.38;4148167;28;20294;-73
2022/08/04 06:38:34;;;;;;;5.25;3.47;;;;;;;27.61;46.27;99463.44;4147442;28;20724;-72
2022/08/04 06:40:36;;;;;;;6.15;3.20;;;;;;;26.77;47.83;99459.53;4155122;28;20283;-74
2022/08/04 06:42:39;;;;;;;7.13;3.35;;;;;;;27.67;46.24;99438.84;4157782;28;20240;-73
2022/08/04 06:44:43;;;;;;;4.32;3.40;;;;;;;28.62;44.06;99447.81;4152915;28;20767;-71
2022/08/04 06:46:45;;;;;;;5.20;3.20;;;;;;;28.46;44.16;99455.31;4153394;28;20228;-71
2022/08/04 06:48:49;;;;;;;5.38;3.30;;;;;;;28.64;44.54;99465.53;4152047;28;20278;-71
2022/08/04 06:50:52;;;;;;;5.90;3.22;;;;;;;28.14;44.36;99467.53;4151242;28;20322;-72
2022/08/04 06:53:14;;;;;;;5.85;4.00;;;;;;;29.15;42.83;99452.50;4160898;28;20256;-73
2022/08/04 06:55:16;;;;;;;5.97;3.47;;;;;;;29.10;42.66;99458.84;4162564;28;20605;-72
2022/08/04 06:57:20;;;;;;;3.90;3.25;;;;;;;29.10;42.70;99473.34;4152648;28;20217;-71
2022/08/04 06:59:24;;;;;;;5.38;3.90;;;;;;;28.87;43.01;99465.94;4154551;28;20246;-71
2022/08/04 07:01:26;;;;;;;5.60;3.75;;;;;;;29.21;42.60;99457.66;4150915;28;20766;-72
2022/08/04 07:03:29;;;;;;;6.93;3.95;;;;;;;29.14;42.42;99461.84;4149003;28;20201;-72
2022/08/04 07:05:32;;;;;;;4.55;3.88;;;;;;;29.45;41.99;99449.44;4153541;28;20282;-73
2022/08/04 07:07:34;;;;;;;7.70;3.53;;;;;;;29.25;42.22;99455.16;4150318;28;20593;-73
2022/08/04 07:09:56;;;;;;;4.68;3.42;;;;;;;29.17;42.18;99462.06;4153256;28;20228;-73
2022/08/04 07:11:59;;;;;;;4.93;3.20;;;;;;;29.34;42.18;99466.28;4146879;28;20314;-72
2022/08/04 07:14:03;;;;;;;7.53;3.05;;;;;;;29.46;41.92;99450.25;4155330;28;20239;-74
2022/08/04 07:16:06;;;;;;;3.42;3.13;;;;;;;29.72;41.37;99448.03;4154005;28;20236;-73
2022/08/04 07:18:08;;;;;;;4.30;3.13;;;;;;;28.69;42.66;99451.03;4152288;28;20509;-73
2022/08/04 07:20:10;;;;;;;8.70;3.55;;;;;;;29.23;42.16;99447.22;4144445;28;20237;-73
2022/08/04 07:22:12;;;;;;;5.60;3.00;;;;;;;29.51;41.52;99450.19;4147469;28;20241;-72
2022/08/04 07:24:30;;;;;;;3.72;3.38;;;;;;;29.81;41.30;99446.28;4148871;28;20264;-70
2022/08/04 07:26:33;;;;;;;3.45;3.05;;;;;;;29.87;40.94;99449.75;4152668;28;20245;-71
2022/08/04 07:28:34;;;;;;;3.08;2.88;;;;;;;29.60;41.13;99455.84;4149881;28;20272;-73
2022/08/04 07:30:39;;;;;;;4.53;3.25;;;;;;;29.91;40.54;99453.53;4152341;28;20778;-71
2022/08/04 07:32:42;;;;;;;4.65;2.97;;;;;;;29.88;40.98;99456.88;4149166;28;20236;-74
2022/08/04 07:34:45;;;;;;;4.88;3.28;;;;;;;29.98;40.74;99453.16;4153869;28;20279;-72
2022/08/04 07:36:53;;;;;;;5.05;2.92;;;;;;;29.66;40.94;99451.94;4149443;28;20228;-72
2022/08/04 07:38:56;;;;;;;5.18;3.15;;;;;;;29.35;41.73;99452.28;4144983;28;20241;-72
2022/08/04 07:40:59;;;;;;;3.65;3.35;;;;;;;29.85;41.00;99441.00;4148440;28;20267;-71
2022/08/04 07:43:01;;;;;;;5.43;3.10;;;;;;;29.89;41.20;99442.03;4155097;28;20837;-70
2022/08/04 07:45:03;;;;;;;6.00;3.30;;;;;;;29.52;42.25;99451.81;4151158;28;20240;-71
2022/08/04 07:47:09;;;;;;;4.32;3.17;;;;;;;29.68;41.00;99443.41;4150172;28;20616;-70
2022/08/04 07:49:11;;;;;;;3.78;3.20;;;;;;;30.02;40.68;99448.72;4151467;28;20229;-71
2022/08/04 07:51:35;;;;;;;4.38;3.20;;;;;;;30.08;40.54;99455.75;4153555;28;20267;-71
2022/08/04 07:53:38;;;;;;;4.75;3.35;;;;;;;30.21;40.43;99454.19;4152139;28;20246;-73
2022/08/04 07:55:56;;;;;;;7.10;3.58;;;;;;;30.25;40.43;99449.78;4140401;28;20236;-72
2022/08/04 07:57:58;;;;;;;3.72;3.05;;;;;;;29.91;41.21;99458.19;4148897;28;20229;-73
2022/08/04 08:00:01;;;;;;;6.57;3.25;;;;;;;30.34;40.49;99458.13;4150455;28;20749;-74
2022/08/04 08:02:03;;;;;;;3.70;3.00;;;;;;;30.56;40.07;99446.53;4151280;28;20792;-72
2022/08/04 08:04:07;;;;;;;5.75;3.70;;;;;;;30.52;40.15;99457.28;4151154;28;20229;-72
2022/08/04 08:06:09;;;;;;;4.55;3.33;;;;;;;31.08;39.70;99458.22;4157587;23;20718;-30
2022/08/04 08:08:30;;;;;;;4.78;3.28;;;;;;;31.22;39.26;99454.72;4136287;28;20225;-30
2022/08/04 08:10:32;;;;;;;5.90;3.10;;;;;;;30.43;40.26;99459.06;4133276;28;20302;-31
2022/08/04 08:12:34;;;;;;;4.57;3.10;;;;;;;30.91;39.87;99449.78;4135426;28;20234;-30
2022/08/04 08:14:53;;;;;;;5.32;3.10;;;;;;;30.74;40.04;99451.16;4121453;28;20324;-30
2022/08/04 08:16:54;;;;;;;4.82;3.42;;;;;;;31.41;39.25;99444.44;4131625;28;20264;-29
2022/08/04 08:18:56;;;;;;;6.78;3.78;;;;;;;31.18;39.65;99459.97;4123270;28;20229;-31
2022/08/04 08:20:58;;;;;;;3.90;3.30;;;;;;;31.18;39.45;99457.22;4129862;28;20823;-32
2022/08/04 08:23:01;;;;;;;5.53;3.55;;;;;;;31.44;39.21;99443.81;4131492;28;20835;-31
2022/08/04 08:25:07;;;;;;;3.88;3.38;;;;;;;31.42;39.49;99448.00;4125029;28;20263;-31
2022/08/04 08:27:08;;;;;;;4.82;3.20;;;;;;;31.30;39.39;99441.06;4122244;28;20672;-30
2022/08/04 08:29:11;;;;;;;4.35;3.40;;;;;;;31.44;39.08;99445.75;4121827;28;20233;-31
2022/08/04 08:31:12;;;;;;;3.05;2.75;;;;;;;31.80;38.70;99442.25;4121697;28;20234;-30
2022/08/04 08:33:15;;;;;;;7.78;4.38;;;;;;;31.44;39.24;99449.28;4126524;28;20234;-30
2022/08/04 08:35:18;;;;;;;4.78;3.00;;;;;;;31.49;39.18;99437.41;4120984;28;20229;-31
2022/08/04 08:37:34;;;;;;;4.78;3.17;;;;;;;32.05;38.07;99438.94;4120878;28;20651;-30
2022/08/04 08:39:49;;;;;;;3.83;3.10;;;;;;;31.55;38.86;99449.06;4128030;28;20344;-35
2022/08/04 08:42:18;;;;;;;6.88;3.15;;;;;;;30.98;39.09;99441.16;4120828;28;20237;-31
2022/08/04 08:44:38;;;;;;;3.75;2.78;;;;;;;31.30;39.00;99432.84;4125859;28;20234;-32
2022/08/04 08:47:01;;;;;;;3.55;2.85;;;;;;;31.25;38.86;99435.69;4118644;28;20245;-31
2022/08/04 08:49:40;;;;;;;4.25;3.00;;;;;;;31.18;38.99;99423.47;4113924;28;20226;-30
2022/08/04 08:52:29;;;;;;;4.78;2.90;;;;;;;31.23;38.43;99420.66;4117541;28;20306;-32
2022/08/04 08:55:16;;;;;;;3.63;2.80;;;;;;;31.66;37.84;99426.56;4121023;28;20662;-32
2022/08/04 08:57:37;;;;;;;4.10;2.97;;;;;;;31.63;38.20;99421.72;4126573;28;20229;-30
2022/08/04 09:00:05;;;;;;;3.15;2.78;;;;;;;32.52;36.93;99435.06;4125608;28;20226;-30
2022/08/04 09:02:22;;;;;;;8.18;3.00;;;;;;;32.53;37.29;99436.72;4123582;28;20227;-32
2022/08/04 09:04:42;;;;;;;5.25;2.65;;;;;;;31.98;38.28;99451.47;4122490;28;20284;-30
2022/08/04 09:07:09;;;;;;;5.75;2.83;;;;;;;32.17;38.14;99448.53;4125527;28;20597;-32
2022/08/04 09:09:22;;;;;;;10.15;3.78;;;;;;;32.11;38.35;99430.56;4123809;28;20233;-31
2022/08/04 09:11:28;;;;;;;4.07;3.05;;;;;;;31.79;38.59;99424.94;4110653;28;20295;-32
2022/08/04 09:13:49;;;;;;;3.15;2.58;;;;;;;31.67;38.61;99433.69;4126625;28;20222;-31
2022/08/04 09:15:58;;;;;;;3.22;2.80;;;;;;;31.34;38.77;99421.25;4114920;28;20230;-33
2022/08/04 09:18:17;;;;;;;3.80;2.90;;;;;;;31.72;38.41;99421.00;4121380;28;20233;-32
2022/08/04 09:20:39;;;;;;;4.95;2.78;;;;;;;32.08;38.08;99409.19;4123348;28;20267;-31
2022/08/04 09:22:48;;;;;;;3.78;2.72;;;;;;;32.33;37.96;99411.31;4126236;28;20936;-30
2022/08/04 09:24:57;;;;;;;7.00;3.20;;;;;;;32.48;37.78;99423.09;4127235;28;20228;-30
2022/08/04 09:27:07;;;;;;;3.92;3.05;;;;;;;32.80;37.22;99435.75;4127458;28;20237;-30
2022/08/04 09:29:11;;;;;;;6.45;2.53;;;;;;;32.89;36.88;99439.34;4121452;28;20260;-31
2022/08/04 09:31:19;;;;;;;5.03;2.60;;;;;;;32.45;37.36;99437.47;4119596;28;20241;-31
2022/08/04 09:33:29;;;;;;;3.63;2.38;;;;;;;32.66;37.04;99433.09;4125744;28;20241;-31
2022/08/04 09:35:58;;;;;;;4.40;2.50;;;;;;;32.38;37.50;99437.91;4125709;28;20835;-30
2022/08/04 09:38:15;;;;;;;5.25;3.00;;;;;;;32.60;37.35;99443.38;4126892;28;20233;-33
2022/08/04 09:40:31;;;;;;;7.00;2.53;;;;;;;33.41;36.74;99438.75;4125353;28;20298;-30
2022/08/04 09:42:53;;;;;;;5.65;2.50;;;;;;;33.36;36.77;99435.34;4131198;28;20233;-30
2022/08/04 09:45:11;;;;;;;3.90;2.58;;;;;;;33.42;36.68;99434.88;4127996;28;20329;-31
2022/08/04 09:47:52;;;;;;;3.88;2.38;;;;;;;34.10;35.56;99441.97;4122657;28;20234;-31
2022/08/04 09:50:08;;;;;;;6.47;2.65;;;;;;;33.34;36.59;99447.47;4124570;28;20242;-30
2022/08/04 09:52:22;;;;;;;5.70;2.67;;;;;;;33.59;36.67;99442.41;4130332;28;20237;-30
2022/08/04 09:54:38;;;;;;;3.22;2.65;;;;;;;33.63;35.38;99446.13;4125219;28;20234;-30
2022/08/04 09:57:20;;;;;;;5.45;2.80;;;;;;;34.10;34.87;99437.25;4127067;28;20238;-30
2022/08/04 09:59:26;;;;;;;6.28;2.25;;;;;;;34.77;33.88;99454.38;4123711;28;20221;-30
2022/08/04 10:01:30;;;;;;;7.20;2.95;;;;;;;34.46;35.38;99455.38;4127171;28;20561;-31
2022/08/04 10:03:36;;;;;;;5.22;2.30;;;;;;;34.53;34.37;99449.41;4124028;28;20237;-30
2022/08/04 10:06:07;;;;;;;5.57;2.65;;;;;;;35.42;34.07;99444.06;4110363;28;20235;-29
2022/08/04 10:08:37;;;;;;;5.97;2.50;;;;;;;35.03;34.01;99436.94;4105234;28;20604;-31
2022/08/04 10:11:07;;;;;;;3.15;2.03;;;;;;;34.43;34.61;99432.03;4123063;28;20239;-30
2022/08/04 10:13:45;;;;;;;6.57;2.80;;;;;;;34.69;34.88;99435.91;4125772;28;20241;-31
2022/08/04 10:16:02;;;;;;;4.43;2.30;;;;;;;35.24;33.64;99429.53;4121056;28;20225;-32
2022/08/04 10:18:22;;;;;;;4.05;2.45;;;;;;;35.45;33.17;99434.31;4113798;28;20230;-30
2022/08/04 10:20:42;;;;;;;5.75;2.47;;;;;;;35.23;33.77;99438.94;4124762;28;20768;-31
2022/08/04 10:23:11;;;;;;;4.47;2.63;;;;;;;35.04;34.27;99424.72;4120148;28;20803;-31
2022/08/04 10:25:12;;;;;;;5.60;2.30;;;;;;;34.73;34.57;99420.28;4126511;28;20231;-30
2022/08/04 10:27:43;;;;;;;4.10;2.38;;;;;;;35.15;34.91;99421.25;4129044;28;20296;-30
2022/08/04 10:29:46;;;;;;;3.78;2.40;;;;;;;35.28;34.21;99413.09;4125256;28;20274;-31
2022/08/04 10:32:13;;;;;;;7.88;2.70;;;;;;;35.28;33.22;99419.41;4109524;28;20235;-29
2022/08/04 10:34:23;;;;;;;4.93;2.45;;;;;;;35.50;34.37;99414.75;4106211;28;20245;-31
2022/08/04 10:36:30;;;;;;;4.95;2.30;;;;;;;35.05;33.88;99412.53;4116053;28;20221;-30
2022/08/04 10:38:40;;;;;;;3.13;2.30;;;;;;;35.20;33.90;99408.41;4129239;28;20233;-30